Sumas, Washington
Current Conditions -  °F | °C
As of 2:00 PM on Saturday 25 Oct 2014 (Local Time) from CYXX Reporting Station
Overcast Overcast  
Wind Chill: 54°   Ceiling: 3500
Heat Index: 54°   Visibility: 20mi
Dew Point: 50°   Wind: 6mph
Humidity: 88%   Direction: 40°NE
Pressure: 29.37"   Gusts: NA
Location:  49°N, 122.26°W
Report Text: CYXX 252100Z 04005KT 20SM BKN035 OVC100 12/10 A2937 RMK SC6AC2 INTMT -RA PRESFR SLP947 DENSITY ALT 400FT
Loading
Personal Weather Stations






























Interactive Weather Map
Tropical Storm Tracking
New forecast layout! Learn more

10-Day Weather Forecast

Advertisements
Track Severe Weather on mobile